METAR AND TAF INFORMATION
METAR FOR PAEH
ADDS - METARS form results

(0519 UTC 26 August 2019)
Data provider http://aviationweather.gov/metar/data/
 
METAR text: PAEH 260455Z AUTO 34018KT 280V020 10SM FEW022 BKN036 12/07 A3007 RMK AO2 LTG DSNT SE SLP184 T01230065
Conditions at: PAEH (CAPE NEWENHAM , AK, US) observed 0455 UTC 26 August 2019
Temperature: 12.3°C (54°F)
Dewpoint: 6.5°C (44°F) [RH = 68%]
Pressure (altimeter): 30.07 inches Hg (1018.4 mb)
[Sea-level pressure: 1018.4 mb]
Winds: from the NNW (340 degrees) at 21 MPH (18 knots; 9.3 m/s)
Visibility: 10 or more miles (16+ km)
Ceiling: 3600 feet AGL
Clouds: few clouds at 2200 feet AGL
broken clouds at 3600 feet AGL
Weather: automated observation with no human augmentation;
there may or may not be significant weather present at this time

METAR text: PAEH 260430Z AUTO 34017KT 10SM FEW017 12/07 A3007 RMK AO2 SLP182
Conditions at: PAEH (CAPE NEWENHAM , AK, US) observed 0430 UTC 26 August 2019
Temperature: 12.0°C (54°F)
Dewpoint: 7.0°C (45°F) [RH = 71%]
Pressure (altimeter): 30.07 inches Hg (1018.4 mb)
[Sea-level pressure: 1018.2 mb]
Winds: from the NNW (340 degrees) at 20 MPH (17 knots; 8.7 m/s)
Visibility: 10 or more miles (16+ km)
Ceiling: at least 12,000 feet AGL
Clouds: few clouds at 1700 feet AGL
Weather: automated observation with no human augmentation;
there may or may not be significant weather present at this time

 AIRPORT MAP

 RUNWAY INFORMATION
Runway 14 Runway length 3950 ft Runway width 150 ft
Runway elevation 230 ft Runway displaced threshold 0 ft Runway heading 162
Runway 32 Runway length 3950 ft Runway width 150 ft
Runway elevation 541 ft Runway displaced threshold 0 ft Runway heading 342

 AIRPORT FREQUENCIES
Type CNTR Name ANCHORAGE Frequency 124.2 MHZ
Type FSS Name KENAI RDO Frequency 122.3 MHZ
Type UNIC Name CTAF/UNICO Frequency 126.2 MHZ

 AIRPORT NEAR NAVIGATION AIDS
Type NDB-DME Name Cape Newenham Frequency 385 KHZ



We are a FlightSim virtual group and are in no way affiliated with RavnAir Group.

Powered by Virtual Airlines Manager [v2.6.2]